Time;durP1;ratioP1;P1;durP2;ratioP2;P2;SDS_P1;SDS_P2;PMS_P1;PMS_P2;Temp;Humidity;BMP_temperature;BMP_pressure;BME280_temperature;BME280_humidity;BME280_pressure;Samples;Min_cycle;Max_cycle;Signal;HPM_P1;HPM_P2
2021/03/16 00:02:00;;;;;;;9.50;4.97;;;;;;;;;;5012697;28;20068;-80
2021/03/16 00:04:26;;;;;;;7.22;4.97;;;;;;;;;;5019849;28;20077;-79
2021/03/16 00:06:52;;;;;;;8.43;5.63;;;;;;;;;;5015610;28;20050;-79
2021/03/16 00:09:18;;;;;;;8.93;6.13;;;;;;;;;;5000334;28;20046;-79
2021/03/16 00:11:44;;;;;;;9.15;5.65;;;;;;;;;;4999942;28;20053;-79
2021/03/16 00:14:10;;;;;;;8.20;5.75;;;;;;;;;;5005601;28;20058;-79
2021/03/16 00:16:37;;;;;;;10.00;6.10;;;;;;;;;;5014319;28;20056;-79
2021/03/16 00:19:03;;;;;;;11.82;6.50;;;;;;;;;;5012218;28;20062;-79
2021/03/16 00:21:29;;;;;;;8.32;6.10;;;;;;;;;;5001040;28;20046;-80
2021/03/16 00:23:55;;;;;;;10.38;6.22;;;;;;;;;;5018449;28;20042;-80
2021/03/16 00:26:21;;;;;;;11.68;6.28;;;;;;;;;;5019343;28;20054;-80
2021/03/16 00:28:47;;;;;;;8.68;5.85;;;;;;;;;;5018490;28;20041;-80
2021/03/16 00:31:13;;;;;;;10.15;6.07;;;;;;;;;;5018959;28;20498;-80
2021/03/16 00:33:40;;;;;;;9.80;6.30;;;;;;;;;;5016409;28;20038;-80
2021/03/16 00:36:07;;;;;;;11.02;6.40;;;;;;;;;;5018270;28;20057;-80
2021/03/16 00:38:33;;;;;;;9.48;6.93;;;;;;;;;;5017191;28;20361;-80
2021/03/16 00:40:59;;;;;;;10.13;6.85;;;;;;;;;;4999632;28;20050;-80
2021/03/16 00:43:25;;;;;;;13.95;8.30;;;;;;;;;;5003379;28;20081;-80
2021/03/16 00:45:51;;;;;;;11.40;7.18;;;;;;;;;;5018428;28;20085;-80
2021/03/16 00:48:17;;;;;;;10.77;6.85;;;;;;;;;;5018480;28;20053;-80
2021/03/16 00:50:45;;;;;;;12.90;6.60;;;;;;;;;;5007149;28;20536;-80
2021/03/16 00:53:11;;;;;;;13.88;7.90;;;;;;;;;;5019334;28;20092;-81
2021/03/16 00:55:37;;;;;;;12.23;7.45;;;;;;;;;;5017515;28;20050;-80
2021/03/16 00:58:03;;;;;;;10.90;6.47;;;;;;;;;;5018508;28;20053;-80
2021/03/16 01:00:30;;;;;;;10.63;7.88;;;;;;;;;;5018077;28;20046;-81
2021/03/16 01:02:56;;;;;;;11.45;7.47;;;;;;;;;;5014946;28;20048;-80
2021/03/16 01:05:23;;;;;;;12.57;8.27;;;;;;;;;;5017886;28;20488;-80
2021/03/16 01:07:50;;;;;;;11.80;7.00;;;;;;;;;;5017194;28;20046;-80
2021/03/16 01:10:18;;;;;;;11.25;7.43;;;;;;;;;;5018053;28;20398;-80
2021/03/16 01:12:44;;;;;;;10.85;6.90;;;;;;;;;;5018063;28;20073;-80
2021/03/16 01:15:12;;;;;;;10.65;7.55;;;;;;;;;;5017349;28;20054;-80
2021/03/16 01:17:38;;;;;;;11.20;6.53;;;;;;;;;;5018754;28;20103;-80
2021/03/16 01:20:08;;;;;;;13.20;7.47;;;;;;;;;;5018147;28;20054;-80
2021/03/16 01:22:34;;;;;;;13.57;7.03;;;;;;;;;;5019378;28;20135;-80
2021/03/16 01:25:01;;;;;;;9.50;6.32;;;;;;;;;;5017221;28;21189;-80
2021/03/16 01:27:26;;;;;;;12.45;8.13;;;;;;;;;;5018128;28;20071;-80
2021/03/16 01:29:52;;;;;;;14.95;6.90;;;;;;;;;;5018330;28;20413;-81
2021/03/16 01:32:18;;;;;;;14.23;7.50;;;;;;;;;;5018442;28;20506;-80
2021/03/16 01:34:44;;;;;;;14.38;7.40;;;;;;;;;;5018328;28;20402;-80
2021/03/16 01:37:10;;;;;;;11.18;6.43;;;;;;;;;;5017461;28;20390;-80
2021/03/16 01:39:36;;;;;;;11.68;6.10;;;;;;;;;;5018252;28;20410;-80
2021/03/16 01:42:03;;;;;;;13.05;6.40;;;;;;;;;;5018351;28;20486;-80
2021/03/16 01:44:29;;;;;;;10.07;6.07;;;;;;;;;;5016346;28;20054;-79
2021/03/16 01:46:55;;;;;;;12.88;6.60;;;;;;;;;;5016874;28;20058;-81
2021/03/16 01:49:21;;;;;;;11.70;6.60;;;;;;;;;;5017585;28;20526;-80
2021/03/16 01:51:47;;;;;;;14.05;6.93;;;;;;;;;;5017207;28;20129;-81
2021/03/16 01:54:13;;;;;;;13.15;6.47;;;;;;;;;;5016704;28;20070;-81
2021/03/16 01:56:40;;;;;;;11.73;6.25;;;;;;;;;;5017781;28;20083;-80
2021/03/16 01:59:07;;;;;;;10.65;6.80;;;;;;;;;;5017331;28;20056;-80
2021/03/16 02:01:33;;;;;;;13.18;6.57;;;;;;;;;;5017343;28;20045;-80
2021/03/16 02:04:00;;;;;;;11.93;6.57;;;;;;;;;;5049182;23;20112;-83
2021/03/16 02:06:31;;;;;;;11.68;6.43;;;;;;;;;;5021606;28;20501;-83
2021/03/16 02:09:02;;;;;;;10.73;6.95;;;;;;;;;;5038499;28;20107;-82
2021/03/16 02:11:34;;;;;;;11.32;6.68;;;;;;;;;;5040230;28;20041;-83
2021/03/16 02:14:03;;;;;;;14.82;7.07;;;;;;;;;;5038546;28;20059;-83
2021/03/16 02:16:34;;;;;;;11.95;6.53;;;;;;;;;;5038357;28;20053;-83
2021/03/16 02:19:00;;;;;;;12.32;6.05;;;;;;;;;;5022998;28;20061;-83
2021/03/16 02:21:28;;;;;;;12.63;7.10;;;;;;;;;;5015818;28;20053;-82
2021/03/16 02:24:20;;;;;;;11.73;6.72;;;;;;;;;;5020832;28;20041;-82
2021/03/16 02:26:52;;;;;;;10.75;5.95;;;;;;;;;;5022920;28;20077;-85
2021/03/16 02:29:20;;;;;;;12.25;6.43;;;;;;;;;;5016678;28;20046;-82
2021/03/16 02:31:51;;;;;;;10.68;6.30;;;;;;;;;;5033164;28;20111;-81
2021/03/16 02:34:18;;;;;;;13.00;6.95;;;;;;;;;;5035280;28;20060;-82
2021/03/16 02:36:44;;;;;;;14.27;7.18;;;;;;;;;;5036300;28;20057;-83
2021/03/16 02:39:11;;;;;;;12.35;6.68;;;;;;;;;;5036589;28;20080;-82
2021/03/16 02:41:38;;;;;;;15.25;6.53;;;;;;;;;;5037413;28;20050;-83
2021/03/16 02:44:05;;;;;;;12.85;7.07;;;;;;;;;;5016565;28;20061;-83
2021/03/16 02:46:32;;;;;;;10.88;5.70;;;;;;;;;;5036148;28;20137;-83
2021/03/16 02:48:59;;;;;;;15.85;6.65;;;;;;;;;;5034750;28;20042;-84
2021/03/16 02:51:25;;;;;;;13.18;6.70;;;;;;;;;;5029068;28;20053;-84
2021/03/16 02:53:53;;;;;;;12.35;5.97;;;;;;;;;;5031033;28;20050;-84
2021/03/16 02:56:20;;;;;;;12.15;6.38;;;;;;;;;;5038700;28;20049;-82
2021/03/16 02:58:46;;;;;;;13.27;6.97;;;;;;;;;;5037554;28;20049;-82
2021/03/16 03:01:13;;;;;;;12.23;6.38;;;;;;;;;;5037424;28;20099;-83
2021/03/16 03:03:40;;;;;;;13.43;6.63;;;;;;;;;;5036028;28;20041;-82
2021/03/16 03:06:07;;;;;;;12.25;6.25;;;;;;;;;;5018618;28;20494;-83
2021/03/16 03:08:33;;;;;;;14.57;6.97;;;;;;;;;;5032611;28;20213;-82
2021/03/16 03:10:59;;;;;;;9.35;5.95;;;;;;;;;;5016804;28;20050;-82
2021/03/16 03:13:25;;;;;;;16.58;6.53;;;;;;;;;;5029532;28;20080;-83
2021/03/16 03:15:52;;;;;;;12.80;6.18;;;;;;;;;;5038401;28;20056;-83
2021/03/16 03:18:19;;;;;;;12.40;5.93;;;;;;;;;;5022821;28;20080;-83
2021/03/16 03:20:46;;;;;;;13.07;6.20;;;;;;;;;;5037679;28;20041;-83
2021/03/16 03:23:20;;;;;;;13.57;5.93;;;;;;;;;;5035007;28;20042;-83
2021/03/16 03:25:51;;;;;;;11.88;6.05;;;;;;;;;;5036821;28;20061;-84
2021/03/16 03:28:21;;;;;;;16.73;6.90;;;;;;;;;;5032706;28;20461;-83
2021/03/16 03:30:48;;;;;;;11.90;5.97;;;;;;;;;;5034232;28;20049;-83
2021/03/16 03:33:14;;;;;;;10.70;5.65;;;;;;;;;;5033850;28;20099;-83
2021/03/16 03:35:41;;;;;;;13.25;6.07;;;;;;;;;;5039724;28;20100;-83
2021/03/16 03:38:09;;;;;;;10.63;6.03;;;;;;;;;;5040137;28;20058;-83
2021/03/16 03:40:35;;;;;;;15.23;5.00;;;;;;;;;;5039751;28;20046;-82
2021/03/16 03:43:03;;;;;;;13.77;5.45;;;;;;;;;;5033088;28;20126;-84
2021/03/16 03:45:30;;;;;;;10.82;5.95;;;;;;;;;;5031501;28;20041;-84
2021/03/16 03:47:57;;;;;;;11.65;5.40;;;;;;;;;;5041076;28;20050;-84
2021/03/16 03:50:24;;;;;;;11.50;5.50;;;;;;;;;;5041869;28;20091;-84
2021/03/16 03:52:51;;;;;;;13.82;5.57;;;;;;;;;;5038983;28;20076;-83
2021/03/16 03:55:18;;;;;;;10.63;5.38;;;;;;;;;;5040559;28;20045;-83
2021/03/16 03:57:44;;;;;;;11.38;5.30;;;;;;;;;;5039066;28;20053;-84
2021/03/16 04:00:13;;;;;;;11.15;5.18;;;;;;;;;;5040647;28;20075;-84
2021/03/16 04:02:40;;;;;;;13.10;6.18;;;;;;;;;;5038741;28;20168;-83
2021/03/16 04:05:07;;;;;;;14.23;5.28;;;;;;;;;;5040363;28;20056;-83
2021/03/16 04:07:35;;;;;;;17.08;5.65;;;;;;;;;;5039110;28;20037;-83
2021/03/16 04:10:01;;;;;;;13.25;4.93;;;;;;;;;;5038550;28;20049;-83
2021/03/16 04:12:29;;;;;;;13.82;5.15;;;;;;;;;;5037722;28;20046;-83
2021/03/16 04:14:55;;;;;;;13.38;5.20;;;;;;;;;;5043375;28;20107;-82
2021/03/16 04:17:22;;;;;;;9.57;5.63;;;;;;;;;;5036761;28;20071;-84
2021/03/16 04:19:50;;;;;;;13.18;5.32;;;;;;;;;;5038408;28;20050;-83
2021/03/16 04:22:17;;;;;;;14.18;5.70;;;;;;;;;;5021212;28;20053;-83
2021/03/16 04:24:43;;;;;;;13.77;5.60;;;;;;;;;;5021944;28;20077;-83
2021/03/16 04:27:09;;;;;;;11.05;6.10;;;;;;;;;;5037981;28;20072;-83
2021/03/16 04:29:36;;;;;;;10.75;5.53;;;;;;;;;;5052502;28;20107;-83
2021/03/16 04:32:02;;;;;;;10.77;4.68;;;;;;;;;;5036927;28;20046;-84
2021/03/16 04:34:28;;;;;;;14.18;5.38;;;;;;;;;;5036430;28;20049;-83
2021/03/16 04:36:54;;;;;;;10.30;5.43;;;;;;;;;;5036607;28;20497;-83
2021/03/16 04:39:21;;;;;;;13.20;4.88;;;;;;;;;;5037343;28;20060;-82
2021/03/16 04:41:47;;;;;;;10.00;5.25;;;;;;;;;;5036406;28;20045;-83
2021/03/16 04:44:13;;;;;;;11.68;4.68;;;;;;;;;;5035712;28;20060;-83
2021/03/16 04:46:40;;;;;;;13.98;4.90;;;;;;;;;;5034440;28;20136;-83
2021/03/16 04:49:06;;;;;;;12.95;4.80;;;;;;;;;;5036969;28;20050;-84
2021/03/16 04:51:32;;;;;;;13.80;6.63;;;;;;;;;;5013969;28;20050;-84
2021/03/16 04:53:58;;;;;;;13.35;4.78;;;;;;;;;;5023968;28;20056;-83
2021/03/16 04:56:24;;;;;;;11.18;4.78;;;;;;;;;;5033259;28;20111;-84
2021/03/16 04:58:50;;;;;;;10.57;4.93;;;;;;;;;;5036169;28;20046;-83
2021/03/16 05:01:17;;;;;;;12.25;4.90;;;;;;;;;;5036773;28;20046;-84
2021/03/16 05:03:44;;;;;;;13.00;4.72;;;;;;;;;;5033565;28;20096;-84
2021/03/16 05:06:10;;;;;;;14.15;5.80;;;;;;;;;;5024737;28;20064;-83
2021/03/16 05:08:36;;;;;;;9.68;4.97;;;;;;;;;;5036720;28;20060;-85
2021/03/16 05:11:02;;;;;;;15.10;5.22;;;;;;;;;;5039912;28;20053;-83
2021/03/16 05:13:28;;;;;;;10.27;4.93;;;;;;;;;;5032629;28;20057;-84
2021/03/16 05:15:54;;;;;;;8.40;5.18;;;;;;;;;;5026104;28;20047;-84
2021/03/16 05:18:20;;;;;;;9.30;5.28;;;;;;;;;;5035449;28;20099;-84
2021/03/16 05:20:47;;;;;;;10.05;4.82;;;;;;;;;;5037511;28;20432;-85
2021/03/16 05:23:14;;;;;;;13.40;5.22;;;;;;;;;;5035796;28;20076;-84
2021/03/16 05:25:40;;;;;;;8.05;4.65;;;;;;;;;;5005747;28;20042;-85
2021/03/16 05:28:06;;;;;;;14.43;4.93;;;;;;;;;;5013741;28;20498;-85
2021/03/16 05:30:33;;;;;;;13.27;4.57;;;;;;;;;;5018388;28;20042;-82
2021/03/16 05:33:01;;;;;;;11.65;5.25;;;;;;;;;;4993051;28;20045;-84
2021/03/16 05:35:28;;;;;;;14.20;6.13;;;;;;;;;;5038149;28;20072;-84
2021/03/16 05:37:55;;;;;;;13.13;5.47;;;;;;;;;;5036782;28;20053;-83
2021/03/16 05:40:21;;;;;;;18.95;5.82;;;;;;;;;;5028501;28;20053;-84
2021/03/16 05:42:48;;;;;;;13.05;6.03;;;;;;;;;;5012200;28;20046;-84
2021/03/16 05:45:14;;;;;;;11.05;5.40;;;;;;;;;;5029409;28;20053;-83
2021/03/16 05:47:41;;;;;;;14.40;6.30;;;;;;;;;;5024240;28;20057;-87
2021/03/16 05:50:09;;;;;;;10.90;4.93;;;;;;;;;;5031446;28;20053;-87
2021/03/16 05:52:35;;;;;;;11.57;5.45;;;;;;;;;;5019245;28;20073;-86
2021/03/16 05:55:03;;;;;;;12.77;5.30;;;;;;;;;;5029064;28;20113;-85
2021/03/16 05:57:30;;;;;;;10.40;4.80;;;;;;;;;;5038572;28;20438;-84
2021/03/16 05:59:57;;;;;;;11.98;5.60;;;;;;;;;;5038848;28;20057;-84
2021/03/16 06:02:23;;;;;;;9.73;4.50;;;;;;;;;;5031434;28;20510;-84
2021/03/16 06:04:49;;;;;;;9.32;5.00;;;;;;;;;;5039094;28;20041;-85
2021/03/16 06:07:16;;;;;;;10.43;5.45;;;;;;;;;;5035263;28;20044;-86
2021/03/16 06:09:43;;;;;;;12.63;4.95;;;;;;;;;;5019439;28;20045;-84
2021/03/16 06:12:11;;;;;;;10.43;4.82;;;;;;;;;;5038238;28;20045;-85
2021/03/16 06:14:38;;;;;;;11.07;4.90;;;;;;;;;;5038044;28;20072;-84
2021/03/16 06:17:05;;;;;;;11.50;4.95;;;;;;;;;;5032086;28;20050;-85
2021/03/16 06:19:33;;;;;;;8.88;4.72;;;;;;;;;;5031827;28;20045;-84
2021/03/16 06:22:01;;;;;;;10.27;5.18;;;;;;;;;;5038186;28;20478;-85
2021/03/16 06:24:28;;;;;;;9.98;5.47;;;;;;;;;;5037983;28;20064;-85
2021/03/16 06:26:54;;;;;;;12.20;6.32;;;;;;;;;;5038442;28;20161;-86
2021/03/16 06:29:22;;;;;;;12.05;6.03;;;;;;;;;;5038796;28;20490;-86
2021/03/16 06:31:48;;;;;;;10.98;5.32;;;;;;;;;;5038248;28;20478;-86
2021/03/16 06:34:25;;;;;;;10.90;5.13;;;;;;;;;;5039825;28;20469;-86
2021/03/16 06:36:57;;;;;;;12.13;4.82;;;;;;;;;;5028480;28;20052;-87
2021/03/16 06:39:24;;;;;;;10.32;5.15;;;;;;;;;;5032555;28;20050;-86
2021/03/16 06:41:50;;;;;;;12.13;4.75;;;;;;;;;;5035266;28;20060;-86
2021/03/16 06:44:17;;;;;;;8.98;4.90;;;;;;;;;;5042520;28;20057;-85
2021/03/16 06:46:52;;;;;;;12.82;5.60;;;;;;;;;;5037482;28;20081;-85
2021/03/16 06:49:19;;;;;;;11.60;5.55;;;;;;;;;;5035708;28;20045;-85
2021/03/16 06:51:46;;;;;;;11.35;4.93;;;;;;;;;;5037153;28;20053;-85
2021/03/16 06:54:14;;;;;;;11.63;5.25;;;;;;;;;;5027649;28;20421;-85
2021/03/16 06:56:40;;;;;;;9.77;4.70;;;;;;;;;;5001544;28;20053;-85
2021/03/16 06:59:22;;;;;;;7.35;4.40;;;;;;;;;;5005182;28;20053;-85
2021/03/16 07:01:50;;;;;;;11.25;5.80;;;;;;;;;;5023869;28;20041;-85
2021/03/16 07:04:17;;;;;;;9.52;5.07;;;;;;;;;;5035515;28;20466;-84
2021/03/16 07:06:43;;;;;;;9.77;5.10;;;;;;;;;;5035881;28;20071;-86
2021/03/16 07:09:11;;;;;;;11.63;5.38;;;;;;;;;;5036443;28;20054;-85
2021/03/16 07:11:39;;;;;;;13.52;5.88;;;;;;;;;;5029079;28;20050;-85
2021/03/16 07:14:06;;;;;;;12.00;5.65;;;;;;;;;;5017044;28;20046;-85
2021/03/16 07:16:33;;;;;;;9.57;4.60;;;;;;;;;;5021755;28;20038;-85
2021/03/16 07:19:03;;;;;;;12.43;4.90;;;;;;;;;;5036943;28;20398;-85
2021/03/16 07:21:34;;;;;;;13.30;4.95;;;;;;;;;;5037105;28;20046;-85
2021/03/16 07:24:06;;;;;;;10.43;4.72;;;;;;;;;;5036452;28;20060;-85
2021/03/16 07:26:32;;;;;;;18.75;5.72;;;;;;;;;;5038096;28;20053;-85
2021/03/16 07:28:59;;;;;;;13.70;5.30;;;;;;;;;;5033737;28;20461;-85
2021/03/16 07:31:26;;;;;;;10.18;5.43;;;;;;;;;;5030463;28;20050;-84
2021/03/16 07:33:53;;;;;;;10.60;5.20;;;;;;;;;;5034925;28;20053;-85
2021/03/16 07:36:19;;;;;;;10.90;6.45;;;;;;;;;;5032163;28;20054;-84
2021/03/16 07:38:46;;;;;;;9.63;5.05;;;;;;;;;;5035301;28;20076;-84
2021/03/16 07:41:12;;;;;;;14.35;5.22;;;;;;;;;;5033883;28;20060;-84
2021/03/16 07:43:40;;;;;;;9.18;4.57;;;;;;;;;;5015642;28;20072;-84
2021/03/16 07:46:11;;;;;;;9.23;5.05;;;;;;;;;;5014699;28;20391;-85
2021/03/16 07:48:43;;;;;;;16.15;5.00;;;;;;;;;;5016300;28;20057;-84
2021/03/16 07:51:14;;;;;;;11.02;4.75;;;;;;;;;;4998886;28;20060;-84
2021/03/16 07:53:41;;;;;;;15.38;7.22;;;;;;;;;;5014442;28;20060;-84
2021/03/16 07:56:08;;;;;;;16.08;6.82;;;;;;;;;;4997902;28;20077;-84
2021/03/16 07:58:43;;;;;;;10.35;4.97;;;;;;;;;;5015678;28;20113;-85
2021/03/16 08:01:10;;;;;;;8.18;5.18;;;;;;;;;;5015555;28;20050;-84
2021/03/16 08:03:36;;;;;;;10.57;6.03;;;;;;;;;;5015086;28;20046;-84
2021/03/16 08:06:02;;;;;;;10.30;6.47;;;;;;;;;;5013747;28;20046;-84
2021/03/16 08:08:38;;;;;;;8.88;4.85;;;;;;;;;;5015476;28;20050;-84
2021/03/16 08:11:11;;;;;;;10.05;4.90;;;;;;;;;;5029912;28;20049;-84
2021/03/16 08:13:37;;;;;;;9.65;4.65;;;;;;;;;;5035851;28;20059;-84
2021/03/16 08:16:10;;;;;;;9.10;4.40;;;;;;;;;;5031262;28;20115;-84
2021/03/16 08:18:37;;;;;;;10.20;4.65;;;;;;;;;;5036067;28;20063;-84
2021/03/16 08:21:10;;;;;;;7.70;5.05;;;;;;;;;;5038583;28;20057;-84
2021/03/16 08:23:37;;;;;;;7.55;3.90;;;;;;;;;;5027258;28;20058;-84
2021/03/16 08:26:04;;;;;;;10.15;4.00;;;;;;;;;;5017343;28;20197;-84
2021/03/16 08:28:31;;;;;;;12.77;4.63;;;;;;;;;;5018023;28;20081;-83
2021/03/16 08:30:58;;;;;;;6.50;4.05;;;;;;;;;;5021292;28;20060;-83
2021/03/16 08:33:26;;;;;;;6.80;3.60;;;;;;;;;;5028668;28;20046;-83
2021/03/16 08:35:53;;;;;;;6.45;3.60;;;;;;;;;;5049171;28;20042;-84
2021/03/16 08:38:21;;;;;;;8.18;4.80;;;;;;;;;;5029349;28;20045;-85
2021/03/16 08:40:48;;;;;;;6.45;3.38;;;;;;;;;;5033640;28;20060;-84
2021/03/16 08:43:14;;;;;;;6.20;3.38;;;;;;;;;;5021310;28;20060;-83
2021/03/16 08:45:43;;;;;;;8.13;3.42;;;;;;;;;;5047627;28;20048;-83
2021/03/16 08:48:10;;;;;;;10.70;3.38;;;;;;;;;;5032831;28;20046;-83
2021/03/16 08:50:36;;;;;;;10.38;4.93;;;;;;;;;;5038255;28;20054;-83
2021/03/16 08:53:03;;;;;;;9.48;3.45;;;;;;;;;;5036334;28;20053;-83
2021/03/16 08:55:30;;;;;;;8.50;3.85;;;;;;;;;;5033655;28;20089;-84
2021/03/16 08:57:57;;;;;;;10.65;4.13;;;;;;;;;;5030662;28;20054;-83
2021/03/16 09:00:24;;;;;;;7.75;3.00;;;;;;;;;;5021981;28;20551;-83
2021/03/16 09:02:52;;;;;;;7.22;3.55;;;;;;;;;;5034606;28;20050;-84
2021/03/16 09:05:20;;;;;;;8.02;3.63;;;;;;;;;;5048981;28;20065;-83
2021/03/16 09:07:46;;;;;;;7.95;3.30;;;;;;;;;;5031591;28;20112;-83
2021/03/16 09:10:14;;;;;;;8.27;3.13;;;;;;;;;;5018253;28;20049;-84
2021/03/16 09:12:42;;;;;;;8.18;3.60;;;;;;;;;;5022022;28;20049;-83
2021/03/16 09:15:10;;;;;;;10.88;3.38;;;;;;;;;;5031688;28;20048;-84
2021/03/16 09:17:37;;;;;;;7.03;3.25;;;;;;;;;;5024582;28;20050;-83
2021/03/16 09:20:14;;;;;;;5.20;2.72;;;;;;;;;;5029083;28;20065;-84
2021/03/16 09:22:40;;;;;;;6.55;2.90;;;;;;;;;;5017015;28;20049;-84
2021/03/16 09:25:08;;;;;;;10.50;3.78;;;;;;;;;;5035280;28;20053;-83
2021/03/16 09:27:34;;;;;;;6.28;3.30;;;;;;;;;;5036880;28;20050;-84
2021/03/16 09:30:00;;;;;;;6.00;3.38;;;;;;;;;;5024788;28;20394;-84
2021/03/16 09:32:26;;;;;;;11.10;2.97;;;;;;;;;;5036551;28;20060;-85
2021/03/16 09:34:53;;;;;;;10.70;3.35;;;;;;;;;;5018049;28;20418;-84
2021/03/16 09:37:20;;;;;;;7.45;2.97;;;;;;;;;;5017153;28;20061;-84
2021/03/16 09:39:54;;;;;;;7.28;3.83;;;;;;;;;;5044597;28;20076;-84
2021/03/16 09:42:31;;;;;;;6.38;3.38;;;;;;;;;;5035157;28;20457;-85
2021/03/16 09:44:58;;;;;;;6.35;2.35;;;;;;;;;;5022130;28;20045;-84
2021/03/16 09:47:26;;;;;;;5.55;2.83;;;;;;;;;;5041587;28;20045;-85
2021/03/16 09:50:05;;;;;;;7.30;2.42;;;;;;;;;;5032073;28;20041;-84
2021/03/16 09:52:32;;;;;;;6.13;2.20;;;;;;;;;;5035420;28;20102;-84
2021/03/16 09:54:58;;;;;;;8.15;2.72;;;;;;;;;;5014447;28;20038;-84
2021/03/16 09:57:31;;;;;;;6.75;2.78;;;;;;;;;;5016112;28;20050;-84
2021/03/16 09:59:57;;;;;;;6.50;2.33;;;;;;;;;;5018990;28;20049;-84
2021/03/16 10:02:31;;;;;;;6.50;2.33;;;;;;;;;;5016065;28;20521;-84
2021/03/16 10:05:03;;;;;;;6.50;2.40;;;;;;;;;;5024751;28;20099;-84
2021/03/16 10:07:30;;;;;;;7.13;2.55;;;;;;;;;;5027510;28;20049;-84
2021/03/16 10:10:07;;;;;;;5.57;2.40;;;;;;;;;;5037880;28;20053;-84
2021/03/16 10:12:33;;;;;;;8.25;3.15;;;;;;;;;;5019264;28;20046;-84
2021/03/16 10:14:59;;;;;;;8.13;2.63;;;;;;;;;;5029873;28;20053;-84
2021/03/16 10:17:25;;;;;;;6.70;2.97;;;;;;;;;;5038438;28;20054;-85
2021/03/16 10:19:53;;;;;;;7.38;2.47;;;;;;;;;;5040038;28;20111;-85
2021/03/16 10:22:19;;;;;;;8.43;2.53;;;;;;;;;;5040547;28;20618;-86
2021/03/16 10:24:45;;;;;;;7.97;3.08;;;;;;;;;;5042107;28;20076;-86
2021/03/16 10:27:12;;;;;;;7.68;2.88;;;;;;;;;;5034547;28;20082;-85
2021/03/16 10:29:38;;;;;;;8.93;2.33;;;;;;;;;;5045397;28;20045;-85
2021/03/16 10:32:04;;;;;;;9.52;2.60;;;;;;;;;;5036938;28;20045;-84
2021/03/16 10:34:30;;;;;;;5.63;2.10;;;;;;;;;;5028646;28;20050;-85
2021/03/16 10:36:57;;;;;;;12.50;3.75;;;;;;;;;;5014195;28;20056;-85
2021/03/16 10:39:23;;;;;;;6.03;2.83;;;;;;;;;;5011025;28;20042;-84
2021/03/16 10:41:49;;;;;;;6.00;2.53;;;;;;;;;;5045630;28;20053;-86
2021/03/16 10:44:16;;;;;;;8.65;3.15;;;;;;;;;;5020461;28;20054;-85
2021/03/16 10:46:43;;;;;;;6.85;3.00;;;;;;;;;;5032572;28;20041;-85
2021/03/16 10:49:11;;;;;;;10.93;3.47;;;;;;;;;;5037283;28;20045;-86
2021/03/16 10:51:42;;;;;;;5.28;2.78;;;;;;;;;;5040555;28;20042;-86
2021/03/16 10:54:09;;;;;;;7.82;3.30;;;;;;;;;;5037941;28;20109;-85
2021/03/16 10:56:35;;;;;;;6.95;3.10;;;;;;;;;;5031664;28;20046;-86
2021/03/16 10:59:02;;;;;;;6.15;3.03;;;;;;;;;;5023892;28;20053;-86
2021/03/16 11:01:29;;;;;;;7.70;3.05;;;;;;;;;;5021906;28;20054;-86
2021/03/16 11:03:55;;;;;;;7.05;3.38;;;;;;;;;;5009214;28;20057;-87
2021/03/16 11:06:21;;;;;;;10.73;3.75;;;;;;;;;;5026769;28;20049;-86
2021/03/16 11:08:50;;;;;;;6.65;2.88;;;;;;;;;;5036373;28;20087;-85
2021/03/16 11:11:16;;;;;;;5.72;3.03;;;;;;;;;;5026777;28;20072;-85
2021/03/16 11:13:42;;;;;;;5.82;3.10;;;;;;;;;;5020586;28;20072;-85
2021/03/16 11:16:08;;;;;;;7.10;2.75;;;;;;;;;;5018515;28;20054;-84
2021/03/16 11:18:35;;;;;;;6.53;3.42;;;;;;;;;;5049040;28;20086;-85
2021/03/16 11:21:02;;;;;;;10.38;5.25;;;;;;;;;;5044227;28;20049;-85
2021/03/16 11:23:28;;;;;;;10.38;5.28;;;;;;;;;;5013153;28;20049;-85
2021/03/16 11:25:54;;;;;;;8.18;3.45;;;;;;;;;;5037161;28;20103;-85
2021/03/16 11:28:20;;;;;;;10.23;3.33;;;;;;;;;;5027897;28;20385;-85
2021/03/16 11:30:46;;;;;;;7.97;3.00;;;;;;;;;;5032206;28;20050;-85
2021/03/16 11:33:12;;;;;;;7.25;3.28;;;;;;;;;;5031233;28;20046;-85
2021/03/16 11:35:39;;;;;;;6.05;2.67;;;;;;;;;;5018461;28;20057;-85
2021/03/16 11:38:05;;;;;;;7.15;3.13;;;;;;;;;;5027127;28;20050;-85
2021/03/16 11:40:32;;;;;;;5.55;2.60;;;;;;;;;;5027652;28;20513;-85
2021/03/16 11:42:58;;;;;;;10.02;3.13;;;;;;;;;;5022790;28;20057;-85
2021/03/16 11:45:24;;;;;;;6.22;2.83;;;;;;;;;;5024700;28;20054;-85
2021/03/16 11:47:50;;;;;;;13.00;2.92;;;;;;;;;;5034431;28;20061;-85
2021/03/16 11:50:16;;;;;;;6.10;2.72;;;;;;;;;;5020824;28;20060;-86
2021/03/16 11:52:43;;;;;;;4.38;2.10;;;;;;;;;;5033496;28;20042;-84
2021/03/16 11:55:11;;;;;;;7.30;2.70;;;;;;;;;;5004837;28;20046;-84
2021/03/16 11:57:38;;;;;;;7.97;2.65;;;;;;;;;;5022424;28;20524;-84
2021/03/16 12:00:05;;;;;;;5.45;2.13;;;;;;;;;;5025406;28;20054;-85
2021/03/16 12:02:32;;;;;;;5.45;2.10;;;;;;;;;;5020674;28;20088;-84
2021/03/16 12:04:58;;;;;;;6.07;2.10;;;;;;;;;;5042304;28;20053;-85
2021/03/16 12:07:24;;;;;;;5.82;2.35;;;;;;;;;;5040715;28;20114;-84
2021/03/16 12:09:51;;;;;;;9.00;2.33;;;;;;;;;;5037349;28;20486;-85
2021/03/16 12:12:17;;;;;;;8.05;2.22;;;;;;;;;;5038353;28;20053;-85
2021/03/16 12:14:44;;;;;;;12.05;2.25;;;;;;;;;;5027823;28;20049;-85
2021/03/16 12:17:11;;;;;;;7.68;2.85;;;;;;;;;;5014244;28;20053;-84
2021/03/16 12:19:38;;;;;;;5.03;2.03;;;;;;;;;;5019300;28;20108;-85
2021/03/16 12:22:04;;;;;;;5.95;2.50;;;;;;;;;;5011865;28;20482;-84
2021/03/16 12:24:30;;;;;;;6.35;2.55;;;;;;;;;;5038139;28;20052;-85
2021/03/16 12:26:57;;;;;;;9.50;3.08;;;;;;;;;;5034005;28;20118;-85
2021/03/16 12:29:23;;;;;;;8.80;3.30;;;;;;;;;;5022692;28;20116;-84
2021/03/16 12:31:49;;;;;;;10.77;3.25;;;;;;;;;;5036567;28;20135;-85
2021/03/16 12:34:15;;;;;;;7.03;2.85;;;;;;;;;;5027581;28;20107;-82
2021/03/16 12:36:42;;;;;;;6.35;3.40;;;;;;;;;;5033630;28;20045;-84
2021/03/16 12:39:10;;;;;;;5.90;2.40;;;;;;;;;;5042845;28;20054;-84
2021/03/16 12:41:36;;;;;;;9.20;3.40;;;;;;;;;;5034087;28;20064;-85
2021/03/16 12:44:03;;;;;;;7.57;2.83;;;;;;;;;;5037383;28;20046;-85
2021/03/16 12:46:29;;;;;;;8.25;2.90;;;;;;;;;;5041146;28;20045;-84
2021/03/16 12:48:55;;;;;;;4.97;2.70;;;;;;;;;;5040822;28;20052;-85
2021/03/16 12:51:22;;;;;;;7.80;2.50;;;;;;;;;;5022607;28;20054;-84
2021/03/16 12:53:48;;;;;;;4.95;2.33;;;;;;;;;;5040027;28;20054;-85
2021/03/16 12:56:15;;;;;;;6.65;2.65;;;;;;;;;;5033187;28;20053;-85
2021/03/16 12:58:41;;;;;;;6.35;2.60;;;;;;;;;;5035579;28;20045;-86
2021/03/16 13:01:08;;;;;;;6.90;2.60;;;;;;;;;;5040985;28;20508;-85
2021/03/16 13:03:35;;;;;;;5.80;2.40;;;;;;;;;;5029984;28;20046;-85
2021/03/16 13:06:01;;;;;;;8.52;3.08;;;;;;;;;;5018882;28;20056;-84
2021/03/16 13:08:27;;;;;;;9.52;3.08;;;;;;;;;;5038428;28;20049;-85
2021/03/16 13:10:53;;;;;;;7.97;2.60;;;;;;;;;;5035001;28;20532;-85
2021/03/16 13:13:20;;;;;;;6.32;2.47;;;;;;;;;;5039189;28;20053;-85
2021/03/16 13:15:46;;;;;;;5.47;2.47;;;;;;;;;;5039188;28;20413;-85
2021/03/16 13:18:13;;;;;;;5.88;2.47;;;;;;;;;;5038193;28;20518;-85
2021/03/16 13:20:39;;;;;;;10.48;2.70;;;;;;;;;;5037460;28;20405;-85
2021/03/16 13:23:05;;;;;;;5.38;2.20;;;;;;;;;;5037675;28;20103;-85
2021/03/16 13:25:31;;;;;;;4.78;1.98;;;;;;;;;;5037132;28;20494;-85
2021/03/16 13:28:01;;;;;;;6.82;1.98;;;;;;;;;;5054472;28;20052;-85
2021/03/16 13:30:27;;;;;;;5.78;2.35;;;;;;;;;;5053728;28;20444;-85
2021/03/16 13:32:54;;;;;;;8.18;3.72;;;;;;;;;;5038869;28;20061;-85
2021/03/16 13:35:21;;;;;;;4.57;2.17;;;;;;;;;;5054117;28;20103;-85
2021/03/16 13:37:47;;;;;;;5.00;2.08;;;;;;;;;;5036758;28;20057;-85
2021/03/16 13:40:14;;;;;;;6.80;2.35;;;;;;;;;;5024484;28;20058;-85
2021/03/16 13:42:40;;;;;;;4.97;2.25;;;;;;;;;;5035800;28;20056;-85
2021/03/16 13:45:08;;;;;;;9.40;2.90;;;;;;;;;;5038495;28;20061;-85
2021/03/16 13:47:34;;;;;;;5.32;2.50;;;;;;;;;;5026786;28;20525;-83
2021/03/16 13:50:00;;;;;;;5.75;2.40;;;;;;;;;;5023454;28;20049;-83
2021/03/16 13:52:27;;;;;;;4.43;2.25;;;;;;;;;;5034226;28;20076;-83
2021/03/16 13:54:53;;;;;;;6.75;3.00;;;;;;;;;;5020681;28;20127;-83
2021/03/16 13:57:19;;;;;;;5.82;2.65;;;;;;;;;;5032976;28;20050;-85
2021/03/16 13:59:46;;;;;;;7.80;3.03;;;;;;;;;;5024237;28;20053;-84
2021/03/16 14:02:12;;;;;;;9.25;2.75;;;;;;;;;;5003297;28;20057;-84
2021/03/16 14:04:38;;;;;;;9.35;3.20;;;;;;;;;;5013958;28;20049;-84
2021/03/16 14:07:04;;;;;;;6.50;2.55;;;;;;;;;;5031494;28;20042;-84
2021/03/16 14:09:31;;;;;;;9.82;2.60;;;;;;;;;;5040625;28;20050;-84
2021/03/16 14:11:57;;;;;;;6.35;2.78;;;;;;;;;;5031586;28;20050;-84
2021/03/16 14:14:23;;;;;;;7.38;3.05;;;;;;;;;;5034424;28;20052;-85
2021/03/16 14:16:49;;;;;;;6.32;2.47;;;;;;;;;;5042085;28;20056;-83
2021/03/16 14:19:16;;;;;;;8.20;3.55;;;;;;;;;;5018898;28;20049;-83
2021/03/16 14:21:42;;;;;;;3.58;2.00;;;;;;;;;;5037747;28;20045;-83
2021/03/16 14:24:08;;;;;;;7.95;2.33;;;;;;;;;;5023131;28;20046;-84
2021/03/16 14:26:35;;;;;;;4.57;2.17;;;;;;;;;;5020684;28;20045;-83
2021/03/16 14:29:01;;;;;;;3.95;2.28;;;;;;;;;;5024424;28;20497;-83
2021/03/16 14:31:27;;;;;;;6.55;2.45;;;;;;;;;;5032775;28;20497;-83
2021/03/16 14:33:53;;;;;;;8.20;2.30;;;;;;;;;;5037004;28;20382;-84
2021/03/16 14:36:19;;;;;;;5.80;2.13;;;;;;;;;;5019906;28;20056;-83